Time;durP1;ratioP1;P1;durP2;ratioP2;P2;SDS_P1;SDS_P2;PMS_P1;PMS_P2;Temp;Humidity;BMP_temperature;BMP_pressure;BME280_temperature;BME280_humidity;BME280_pressure;Samples;Min_cycle;Max_cycle;Signal;HPM_P1;HPM_P2
2023/10/13 00:02:11;;;;;;;;;;;16.60;65.60;;;;;;5005638;28;114408;-81
2023/10/13 00:04:38;;;;;;;;;;;16.60;65.50;;;;;;5006108;28;114352;-80
2023/10/13 00:07:08;;;;;;;;;;;16.60;65.50;;;;;;5003754;28;115576;-80
2023/10/13 00:09:39;;;;;;;;;;;16.60;65.50;;;;;;5004991;28;114572;-81
2023/10/13 00:12:13;;;;;;;;;;;16.60;65.30;;;;;;5005556;28;114516;-80
2023/10/13 00:14:41;;;;;;;;;;;16.60;65.30;;;;;;5006613;28;114453;-81
2023/10/13 00:17:10;;;;;;;;;;;16.60;65.40;;;;;;5008733;28;115443;-82
2023/10/13 00:19:38;;;;;;;;;;;16.60;65.30;;;;;;5004067;28;114782;-79
2023/10/13 00:22:10;;;;;;;;;;;16.70;65.30;;;;;;5004401;28;114534;-81
2023/10/13 00:24:42;;;;;;;;;;;16.60;65.30;;;;;;5006392;28;114515;-81
2023/10/13 00:27:24;;;;;;;;;;;16.60;65.30;;;;;;5005346;28;115020;-81
2023/10/13 00:29:51;;;;;;;;;;;16.60;65.40;;;;;;5004084;28;114660;-82
2023/10/13 00:32:26;;;;;;;;;;;16.50;65.50;;;;;;5004449;28;114297;-81
2023/10/13 00:34:56;;;;;;;;;;;16.50;65.40;;;;;;5006022;28;115161;-81
2023/10/13 00:37:28;;;;;;;;;;;16.40;65.90;;;;;;5004267;28;116014;-81
2023/10/13 00:39:56;;;;;;;;;;;16.30;65.80;;;;;;5003729;28;114707;-81
2023/10/13 00:42:33;;;;;;;;;;;16.20;65.80;;;;;;5005709;28;114495;-81
2023/10/13 00:45:00;;;;;;;;;;;16.30;65.90;;;;;;5005793;28;114600;-81
2023/10/13 00:47:47;;;;;;;;;;;16.30;65.80;;;;;;4986697;28;115595;-82
2023/10/13 00:50:17;;;;;;;;;;;16.30;65.90;;;;;;5004929;28;114596;-80
2023/10/13 00:52:46;;;;;;;;;;;16.20;65.90;;;;;;5005271;28;114099;-83
2023/10/13 00:55:13;;;;;;;;;;;16.20;65.90;;;;;;5006116;28;114446;-81
2023/10/13 00:57:41;;;;;;;;;;;16.30;66.10;;;;;;5003380;28;115028;-81
2023/10/13 01:00:25;;;;;;;;;;;16.20;65.90;;;;;;4970418;28;117766;-81
2023/10/13 01:03:05;;;;;;;;;;;16.30;65.90;;;;;;5003939;28;114466;-81
2023/10/13 01:05:33;;;;;;;;;;;16.30;65.80;;;;;;5007446;28;114523;-83
2023/10/13 01:08:01;;;;;;;;;;;16.30;65.80;;;;;;5006964;28;114859;-81
2023/10/13 01:10:32;;;;;;;;;;;16.30;65.80;;;;;;5007977;28;114691;-81
2023/10/13 01:13:02;;;;;;;;;;;16.30;65.80;;;;;;5008865;28;114428;-83
2023/10/13 01:15:33;;;;;;;;;;;16.30;65.70;;;;;;5007515;28;114560;-80
2023/10/13 01:18:12;;;;;;;;;;;16.30;65.80;;;;;;5007590;28;114865;-81
2023/10/13 01:20:45;;;;;;;;;;;16.40;65.80;;;;;;5006572;28;115184;-81
2023/10/13 01:23:18;;;;;;;;;;;16.30;65.70;;;;;;4975228;28;114592;-82
2023/10/13 01:25:48;;;;;;;;;;;16.30;65.90;;;;;;4991017;28;114237;-81
2023/10/13 01:28:17;;;;;;;;;;;16.30;65.90;;;;;;5005845;28;115609;-81
2023/10/13 01:30:51;;;;;;;;;;;16.20;65.90;;;;;;5006277;28;117025;-81
2023/10/13 01:33:26;;;;;;;;;;;16.20;66.40;;;;;;4991544;28;114502;-81
2023/10/13 01:35:58;;;;;;;;;;;16.10;66.50;;;;;;5008407;28;114309;-81
2023/10/13 01:38:27;;;;;;;;;;;16.10;66.50;;;;;;5006198;28;114957;-82
2023/10/13 01:40:56;;;;;;;;;;;16.00;66.70;;;;;;5006135;28;115255;-81
2023/10/13 01:43:24;;;;;;;;;;;16.00;66.90;;;;;;5007280;28;114664;-82
2023/10/13 01:45:51;;;;;;;;;;;16.00;66.90;;;;;;5007435;28;114500;-83
2023/10/13 01:48:21;;;;;;;;;;;15.90;66.90;;;;;;5007356;28;114962;-81
2023/10/13 01:50:54;;;;;;;;;;;16.00;66.90;;;;;;5006114;28;114635;-81
2023/10/13 01:53:22;;;;;;;;;;;16.00;66.90;;;;;;5007608;28;114536;-81
2023/10/13 01:55:50;;;;;;;;;;;16.10;66.80;;;;;;5008054;28;114497;-81
2023/10/13 01:58:22;;;;;;;;;;;16.10;66.70;;;;;;5006747;28;115627;-81
2023/10/13 02:00:50;;;;;;;;;;;16.10;66.90;;;;;;5023541;28;115017;-83
2023/10/13 02:03:17;;;;;;;;;;;16.00;69.10;;;;;;5023524;28;114237;-82
2023/10/13 02:05:48;;;;;;;;;;;15.80;68.10;;;;;;5023347;28;114588;-82
2023/10/13 02:08:23;;;;;;;;;;;15.70;68.10;;;;;;5005741;28;115160;-82
2023/10/13 02:10:51;;;;;;;;;;;15.70;68.00;;;;;;4990721;28;115714;-82
2023/10/13 02:13:19;;;;;;;;;;;15.80;67.90;;;;;;5007548;28;114341;-81
2023/10/13 02:15:47;;;;;;;;;;;15.90;67.70;;;;;;5022223;27;114380;-82
2023/10/13 02:18:20;;;;;;;;;;;16.00;67.50;;;;;;5021225;28;117145;-81
2023/10/13 02:20:54;;;;;;;;;;;16.00;67.50;;;;;;4989797;28;114547;-81
2023/10/13 02:23:25;;;;;;;;;;;16.00;67.40;;;;;;5023160;28;114596;-81
2023/10/13 02:26:02;;;;;;;;;;;16.00;67.30;;;;;;5006652;28;114972;-81
2023/10/13 02:28:34;;;;;;;;;;;16.10;67.20;;;;;;5005518;28;115033;-81
2023/10/13 02:31:03;;;;;;;;;;;16.20;67.20;;;;;;5022373;28;114652;-81
2023/10/13 02:33:30;;;;;;;;;;;16.20;67.10;;;;;;5007452;28;114421;-82
2023/10/13 02:36:03;;;;;;;;;;;16.20;67.30;;;;;;5008013;28;114523;-82
2023/10/13 02:38:52;;;;;;;;;;;16.20;67.20;;;;;;5006874;28;114893;-82
2023/10/13 02:41:28;;;;;;;;;;;16.10;67.20;;;;;;5006777;28;114624;-81
2023/10/13 02:43:55;;;;;;;;;;;16.10;67.30;;;;;;5007248;28;114286;-81
2023/10/13 02:46:23;;;;;;;;;;;16.00;67.50;;;;;;5023171;28;114572;-80
2023/10/13 02:48:54;;;;;;;;;;;15.90;67.60;;;;;;5005855;28;114790;-81
2023/10/13 02:51:36;;;;;;;;;;;15.80;67.80;;;;;;5006370;28;115661;-80
2023/10/13 02:54:18;;;;;;;;;;;15.80;67.80;;;;;;5007961;28;114201;-80
2023/10/13 02:57:04;;;;;;;;;;;15.90;68.10;;;;;;5022919;28;114466;-80
2023/10/13 02:59:40;;;;;;;;;;;15.80;68.00;;;;;;5006413;28;116510;-79
2023/10/13 03:02:17;;;;;;;;;;;15.90;68.40;;;;;;5006136;28;115899;-79
2023/10/13 03:04:46;;;;;;;;;;;15.80;68.20;;;;;;5007301;28;114315;-80
2023/10/13 03:07:22;;;;;;;;;;;15.70;68.30;;;;;;5005880;28;114411;-81
2023/10/13 03:09:50;;;;;;;;;;;15.70;68.40;;;;;;5005684;28;114988;-81
2023/10/13 03:12:18;;;;;;;;;;;15.70;68.40;;;;;;5005007;28;114559;-82
2023/10/13 03:14:49;;;;;;;;;;;15.70;68.40;;;;;;5006975;28;114539;-80
2023/10/13 03:17:18;;;;;;;;;;;15.70;68.40;;;;;;5006460;28;114381;-81
2023/10/13 03:19:51;;;;;;;;;;;15.70;68.30;;;;;;5006052;28;114914;-82
2023/10/13 03:22:30;;;;;;;;;;;15.80;68.40;;;;;;5021542;28;116712;-81
2023/10/13 03:25:04;;;;;;;;;;;15.80;68.30;;;;;;5022251;28;114408;-81
2023/10/13 03:30:17;;;;;;;;;;;15.80;68.20;;;;;;5005066;28;115121;-81
2023/10/13 03:32:53;;;;;;;;;;;15.80;68.30;;;;;;5005865;28;114727;-80
2023/10/13 03:35:24;;;;;;;;;;;15.80;68.20;;;;;;5005200;28;114533;-81
2023/10/13 03:37:52;;;;;;;;;;;15.80;68.30;;;;;;5006839;28;114324;-81
2023/10/13 03:43:11;;;;;;;;;;;15.80;68.40;;;;;;5005973;28;114931;-81
2023/10/13 03:45:47;;;;;;;;;;;15.80;68.40;;;;;;5006727;28;114497;-82
2023/10/13 03:51:02;;;;;;;;;;;15.80;68.40;;;;;;5005338;28;114817;-81
2023/10/13 03:53:33;;;;;;;;;;;15.80;68.40;;;;;;5004874;28;114543;-80
2023/10/13 03:56:12;;;;;;;;;;;15.80;68.40;;;;;;4988860;28;114454;-81
2023/10/13 03:58:42;;;;;;;;;;;15.80;68.60;;;;;;4990187;28;114597;-81
2023/10/13 04:01:10;;;;;;;;;;;15.70;68.60;;;;;;5004697;28;114956;-82
2023/10/13 04:03:37;;;;;;;;;;;15.80;68.60;;;;;;5005329;28;115281;-81
2023/10/13 04:06:08;;;;;;;;;;;15.80;68.60;;;;;;5006124;28;114558;-82
2023/10/13 04:14:55;;;;;;;;;;;16.00;68.40;;;;;;4996610;28;117088;-81
2023/10/13 04:17:12;;;;;;;;;;;16.00;68.30;;;;;;5003840;28;114496;-80
2023/10/13 04:20:12;;;;;;;;;;;16.00;68.20;;;;;;5006141;28;114232;-81
2023/10/13 04:36:13;;;;;;;;;;;16.00;68.20;;;;;;5003071;28;115495;-81
2023/10/13 04:41:31;;;;;;;;;;;16.10;68.10;;;;;;5005724;28;114390;-81
2023/10/13 04:44:05;;;;;;;;;;;16.10;68.00;;;;;;5003274;28;114995;-81
2023/10/13 04:46:36;;;;;;;;;;;16.10;68.00;;;;;;5005040;28;115012;-81
2023/10/13 04:49:09;;;;;;;;;;;16.20;67.90;;;;;;5021247;28;114423;-81
2023/10/13 04:51:50;;;;;;;;;;;16.20;67.90;;;;;;5005990;28;114549;-83
2023/10/13 04:54:26;;;;;;;;;;;16.20;67.90;;;;;;5003363;28;115709;-81
2023/10/13 04:56:59;;;;;;;;;;;16.20;67.90;;;;;;5003600;28;114676;-82
2023/10/13 04:59:37;;;;;;;;;;;16.20;67.90;;;;;;5024862;28;115439;-82
2023/10/13 05:51:43;;;;;;;;;;;16.30;67.50;;;;;;5006614;28;115248;-80
2023/10/13 06:29:56;;;;;;;;;;;16.60;66.90;;;;;;5026108;27;114462;-82
2023/10/13 06:32:26;;;;;;;;;;;16.70;66.90;;;;;;5011174;28;114978;-83
2023/10/13 06:34:57;;;;;;;;;;;16.60;66.90;;;;;;5006733;28;114641;-83
2023/10/13 06:37:31;;;;;;;;;;;16.70;66.90;;;;;;5016961;28;114520;-80
2023/10/13 06:40:02;;;;;;;;;;;16.70;66.90;;;;;;5007192;28;114545;-82
2023/10/13 06:42:29;;;;;;;;;;;16.70;66.80;;;;;;4987987;28;116136;-82
2023/10/13 06:44:58;;;;;;;;;;;16.70;66.90;;;;;;5006230;28;116264;-82
2023/10/13 06:47:25;;;;;;;;;;;16.70;66.80;;;;;;5021779;28;114400;-82
2023/10/13 06:49:54;;;;;;;;;;;16.70;66.70;;;;;;5007216;28;114432;-82
2023/10/13 06:52:22;;;;;;;;;;;16.80;66.80;;;;;;5020416;28;114865;-82
2023/10/13 06:54:53;;;;;;;;;;;16.80;66.70;;;;;;5026284;28;114849;-81
2023/10/13 06:57:20;;;;;;;;;;;16.80;66.60;;;;;;5017325;28;114464;-81
2023/10/13 06:59:47;;;;;;;;;;;16.90;66.60;;;;;;5011798;28;114941;-81
2023/10/13 07:02:33;;;;;;;;;;;16.90;66.60;;;;;;5005785;28;115877;-82
2023/10/13 07:05:07;;;;;;;;;;;17.00;66.60;;;;;;5004528;28;115963;-83
2023/10/13 07:07:36;;;;;;;;;;;17.00;66.90;;;;;;5007340;28;114522;-83
2023/10/13 07:10:07;;;;;;;;;;;17.00;66.60;;;;;;5006753;28;114214;-81
2023/10/13 07:12:35;;;;;;;;;;;17.00;66.70;;;;;;5008212;28;115401;-81
2023/10/13 07:15:18;;;;;;;;;;;17.00;66.60;;;;;;5010214;28;115409;-81
2023/10/13 07:17:47;;;;;;;;;;;17.10;66.70;;;;;;5022167;27;116685;-81
2023/10/13 07:20:15;;;;;;;;;;;17.20;66.70;;;;;;5017762;28;115052;-81
2023/10/13 07:22:54;;;;;;;;;;;17.20;66.60;;;;;;5021378;28;114886;-80
2023/10/13 07:25:25;;;;;;;;;;;17.20;66.50;;;;;;5006040;28;114793;-82
2023/10/13 07:27:54;;;;;;;;;;;17.30;66.50;;;;;;5006814;28;115351;-83
2023/10/13 07:30:26;;;;;;;;;;;17.30;66.40;;;;;;5025410;28;114710;-82
2023/10/13 07:32:57;;;;;;;;;;;17.30;66.40;;;;;;5019951;28;114745;-82
2023/10/13 07:35:25;;;;;;;;;;;17.40;66.40;;;;;;4988372;28;117733;-82
2023/10/13 07:37:53;;;;;;;;;;;17.50;66.40;;;;;;5022758;27;115326;-82
2023/10/13 07:43:10;;;;;;;;;;;17.60;66.30;;;;;;5006613;28;118875;-80
2023/10/13 07:45:37;;;;;;;;;;;17.60;66.20;;;;;;5011873;28;116048;-80
2023/10/13 07:48:20;;;;;;;;;;;17.70;66.20;;;;;;5021029;28;114405;-82
2023/10/13 07:50:48;;;;;;;;;;;17.80;66.10;;;;;;5008829;28;114542;-82
2023/10/13 07:53:20;;;;;;;;;;;18.00;66.00;;;;;;5005181;28;114981;-82
2023/10/13 07:55:47;;;;;;;;;;;18.10;65.80;;;;;;5005422;28;115031;-82
2023/10/13 07:58:14;;;;;;;;;;;18.30;65.70;;;;;;5005650;28;114224;-81
2023/10/13 08:08:39;;;;;;;;;;;18.70;65.20;;;;;;5006015;28;114433;-81
2023/10/13 08:11:11;;;;;;;;;;;18.70;64.90;;;;;;5019914;28;114381;-81
2023/10/13 08:13:46;;;;;;;;;;;18.80;64.80;;;;;;5003371;28;116098;-81
2023/10/13 08:16:45;;;;;;;;;;;18.90;64.80;;;;;;5015038;28;118329;-82
2023/10/13 08:19:16;;;;;;;;;;;19.00;64.60;;;;;;5005165;28;114624;-81
2023/10/13 08:21:51;;;;;;;;;;;19.00;64.40;;;;;;5004394;28;114443;-81
2023/10/13 08:27:15;;;;;;;;;;;19.30;64.00;;;;;;5022510;27;114607;-82
2023/10/13 08:43:22;;;;;;;;;;;19.80;63.40;;;;;;5018128;28;114409;-82
2023/10/13 08:48:07;;;;;;;;;;;19.90;62.80;;;;;;5003283;28;114737;-82
2023/10/13 09:09:43;;;;;;;;;;;20.00;62.30;;;;;;5023686;28;114641;-81
2023/10/13 09:12:14;;;;;;;;;;;20.00;61.90;;;;;;5023729;28;114547;-83
2023/10/13 09:14:44;;;;;;;;;;;20.00;61.60;;;;;;5018960;28;114448;-83
2023/10/13 09:19:47;;;;;;;;;;;19.90;61.70;;;;;;5018837;28;114778;-83
2023/10/13 09:22:42;;;;;;;;;;;20.00;61.60;;;;;;5004716;28;114506;-81
2023/10/13 09:25:13;;;;;;;;;;;20.00;61.60;;;;;;5010474;27;114817;-83
2023/10/13 09:27:41;;;;;;;;;;;20.10;61.20;;;;;;5027535;28;114857;-84
2023/10/13 09:30:23;;;;;;;;;;;20.10;61.20;;;;;;5005299;28;114751;-84
2023/10/13 09:33:01;;;;;;;;;;;20.20;61.20;;;;;;5013015;28;114336;-82
2023/10/13 09:35:33;;;;;;;;;;;20.20;61.20;;;;;;5024245;27;114535;-82
2023/10/13 09:38:03;;;;;;;;;;;20.30;61.20;;;;;;5007542;28;114865;-82
2023/10/13 09:40:46;;;;;;;;;;;20.30;61.10;;;;;;5005872;28;115532;-81
2023/10/13 09:43:18;;;;;;;;;;;20.40;61.00;;;;;;5006678;28;114258;-83
2023/10/13 09:48:40;;;;;;;;;;;20.50;60.80;;;;;;5027259;28;114944;-84
2023/10/13 09:51:12;;;;;;;;;;;20.60;60.50;;;;;;5004932;28;117063;-83
2023/10/13 09:53:40;;;;;;;;;;;20.60;60.50;;;;;;5007013;28;114412;-82
2023/10/13 09:56:28;;;;;;;;;;;20.60;60.30;;;;;;4993313;28;115018;-83
2023/10/13 09:59:08;;;;;;;;;;;20.60;60.40;;;;;;5005922;28;114983;-84
2023/10/13 10:01:49;;;;;;;;;;;20.60;60.20;;;;;;5021684;28;116493;-84
2023/10/13 10:04:18;;;;;;;;;;;20.60;60.00;;;;;;5026646;28;114587;-83
2023/10/13 10:06:56;;;;;;;;;;;20.60;60.00;;;;;;4996754;28;114590;-83
2023/10/13 10:09:34;;;;;;;;;;;20.60;59.90;;;;;;5024800;28;116492;-84
2023/10/13 10:12:05;;;;;;;;;;;20.60;60.00;;;;;;5009139;28;115131;-84
2023/10/13 10:15:02;;;;;;;;;;;20.60;59.80;;;;;;5023924;28;114510;-83
2023/10/13 10:17:29;;;;;;;;;;;20.50;59.80;;;;;;5030254;27;114420;-84
2023/10/13 10:19:57;;;;;;;;;;;20.50;59.50;;;;;;5022057;28;115667;-84
2023/10/13 10:22:25;;;;;;;;;;;20.50;59.50;;;;;;5005677;28;114631;-83
2023/10/13 10:24:59;;;;;;;;;;;20.40;59.60;;;;;;4995614;28;114405;-83
2023/10/13 10:27:30;;;;;;;;;;;20.40;59.60;;;;;;5006670;28;114163;-82
2023/10/13 10:29:57;;;;;;;;;;;20.40;59.50;;;;;;4974263;28;116268;-82
2023/10/13 10:32:34;;;;;;;;;;;20.40;59.70;;;;;;5006535;28;114792;-83
2023/10/13 10:35:09;;;;;;;;;;;20.40;59.80;;;;;;5005887;28;115099;-82
2023/10/13 10:37:36;;;;;;;;;;;20.50;59.90;;;;;;5006339;28;114536;-82
2023/10/13 10:40:08;;;;;;;;;;;20.60;59.90;;;;;;5015230;28;117111;-83
2023/10/13 10:42:35;;;;;;;;;;;20.60;59.80;;;;;;5005094;28;114604;-83
2023/10/13 10:45:08;;;;;;;;;;;20.70;59.90;;;;;;5005755;28;114799;-83
2023/10/13 10:47:39;;;;;;;;;;;20.70;59.70;;;;;;5006207;28;114826;-83
2023/10/13 10:50:07;;;;;;;;;;;20.70;59.70;;;;;;5006450;28;114975;-83
2023/10/13 10:52:39;;;;;;;;;;;20.80;59.70;;;;;;5015310;28;116450;-83
2023/10/13 10:55:07;;;;;;;;;;;20.80;59.80;;;;;;5019855;28;114276;-83
2023/10/13 10:57:38;;;;;;;;;;;20.90;59.70;;;;;;5026479;27;114636;-84
2023/10/13 11:00:11;;;;;;;;;;;21.00;59.60;;;;;;5024868;28;115068;-85
2023/10/13 11:02:38;;;;;;;;;;;21.00;59.50;;;;;;5025296;28;114552;-84
2023/10/13 11:05:06;;;;;;;;;;;21.10;59.30;;;;;;5021755;28;114320;-84
2023/10/13 11:07:35;;;;;;;;;;;21.10;59.40;;;;;;5024804;28;114621;-82
2023/10/13 11:10:17;;;;;;;;;;;21.20;59.50;;;;;;5008624;28;115121;-83
2023/10/13 11:12:54;;;;;;;;;;;21.20;59.50;;;;;;5005623;28;118673;-84
2023/10/13 11:15:33;;;;;;;;;;;21.20;59.20;;;;;;5005603;28;114506;-84
2023/10/13 11:18:05;;;;;;;;;;;21.20;59.00;;;;;;5006693;28;114472;-83
2023/10/13 11:20:43;;;;;;;;;;;21.20;59.10;;;;;;5004626;28;115336;-83
2023/10/13 11:23:11;;;;;;;;;;;21.20;59.00;;;;;;4993952;28;115877;-82
2023/10/13 11:25:38;;;;;;;;;;;21.20;59.00;;;;;;5026236;27;114390;-83
2023/10/13 11:28:27;;;;;;;;;;;21.10;58.90;;;;;;5009050;28;114621;-83
2023/10/13 11:31:10;;;;;;;;;;;21.10;58.70;;;;;;5009655;28;118442;-82
2023/10/13 11:33:46;;;;;;;;;;;21.10;58.80;;;;;;5021656;27;115053;-84
2023/10/13 11:36:19;;;;;;;;;;;21.00;58.70;;;;;;5006654;28;114379;-83
2023/10/13 11:38:49;;;;;;;;;;;21.00;58.80;;;;;;5006779;28;114405;-83
2023/10/13 11:41:19;;;;;;;;;;;21.10;58.80;;;;;;5008080;28;115539;-84
2023/10/13 11:51:44;;;;;;;;;;;21.30;58.40;;;;;;4988025;28;115217;-83
2023/10/13 11:54:18;;;;;;;;;;;21.20;58.40;;;;;;5004212;28;114456;-83
2023/10/13 11:56:46;;;;;;;;;;;21.20;58.00;;;;;;5005028;28;114243;-83
2023/10/13 11:59:17;;;;;;;;;;;21.10;58.20;;;;;;5017557;28;114288;-84
2023/10/13 12:04:32;;;;;;;;;;;21.10;58.40;;;;;;5014540;28;114929;-84
2023/10/13 12:07:14;;;;;;;;;;;21.00;58.40;;;;;;5026173;28;114476;-84
2023/10/13 12:12:27;;;;;;;;;;;21.00;58.30;;;;;;5011012;28;116989;-83
2023/10/13 12:14:57;;;;;;;;;;;21.10;58.40;;;;;;5024774;27;115551;-84
2023/10/13 12:17:31;;;;;;;;;;;21.10;58.50;;;;;;5025075;27;114365;-84
2023/10/13 12:20:00;;;;;;;;;;;21.20;58.40;;;;;;5006189;27;114476;-82
2023/10/13 12:22:35;;;;;;;;;;;21.30;58.20;;;;;;5006589;28;114909;-84
2023/10/13 12:25:18;;;;;;;;;;;21.30;58.30;;;;;;5036423;27;115121;-82
2023/10/13 12:27:48;;;;;;;;;;;21.30;58.30;;;;;;5005732;28;114282;-84
2023/10/13 12:30:22;;;;;;;;;;;21.30;58.30;;;;;;4975988;28;114675;-85
2023/10/13 12:33:06;;;;;;;;;;;21.30;58.40;;;;;;5024851;28;115291;-84
2023/10/13 12:35:44;;;;;;;;;;;21.30;58.10;;;;;;5024751;28;115184;-82
2023/10/13 12:52:20;;;;;;;;;;;21.30;57.70;;;;;;5015027;28;114508;-84
2023/10/13 12:54:54;;;;;;;;;;;21.20;57.70;;;;;;5004546;28;115361;-83
2023/10/13 12:57:23;;;;;;;;;;;21.20;57.80;;;;;;5004489;28;115151;-83
2023/10/13 12:59:53;;;;;;;;;;;21.10;57.90;;;;;;5006128;28;114419;-83
2023/10/13 13:02:20;;;;;;;;;;;21.00;57.90;;;;;;5007122;28;114333;-83
2023/10/13 13:05:02;;;;;;;;;;;20.90;57.80;;;;;;5008062;28;114823;-82
2023/10/13 13:07:29;;;;;;;;;;;20.90;57.90;;;;;;4997780;28;118023;-83
2023/10/13 13:09:59;;;;;;;;;;;20.80;58.10;;;;;;5009041;28;114374;-82
2023/10/13 13:12:29;;;;;;;;;;;20.80;58.20;;;;;;5024315;27;114499;-82
2023/10/13 13:14:56;;;;;;;;;;;20.80;58.30;;;;;;5023979;28;116629;-83
2023/10/13 13:17:23;;;;;;;;;;;20.80;58.40;;;;;;5025478;27;114748;-81
2023/10/13 13:19:50;;;;;;;;;;;20.80;58.30;;;;;;5023618;28;114561;-82
2023/10/13 13:22:18;;;;;;;;;;;20.80;58.30;;;;;;5014605;27;116032;-82
2023/10/13 13:24:45;;;;;;;;;;;20.80;58.40;;;;;;5027672;27;115314;-84
2023/10/13 13:27:18;;;;;;;;;;;20.80;58.50;;;;;;5026418;28;114471;-83
2023/10/13 13:29:45;;;;;;;;;;;20.80;58.40;;;;;;4983149;27;116658;-83
2023/10/13 13:32:24;;;;;;;;;;;20.70;58.50;;;;;;5007370;28;114563;-83
2023/10/13 13:35:04;;;;;;;;;;;20.70;58.50;;;;;;5018608;28;114978;-83
2023/10/13 13:37:31;;;;;;;;;;;20.70;58.70;;;;;;5004903;28;115104;-82
2023/10/13 13:40:18;;;;;;;;;;;20.80;58.70;;;;;;5006185;28;114430;-82
2023/10/13 13:42:45;;;;;;;;;;;20.80;58.70;;;;;;5004864;27;116734;-83
2023/10/13 13:45:22;;;;;;;;;;;20.80;58.70;;;;;;5004763;28;115138;-84
2023/10/13 13:47:55;;;;;;;;;;;20.80;58.80;;;;;;5004542;28;114634;-85
2023/10/13 13:50:28;;;;;;;;;;;20.70;58.70;;;;;;5022518;28;114323;-85
2023/10/13 13:52:58;;;;;;;;;;;20.80;58.80;;;;;;4989551;28;114552;-84
2023/10/13 13:55:28;;;;;;;;;;;20.80;58.80;;;;;;5007694;28;118196;-84
2023/10/13 13:57:56;;;;;;;;;;;20.80;58.80;;;;;;5025931;27;114700;-84
2023/10/13 14:00:36;;;;;;;;;;;20.80;58.80;;;;;;5024828;28;114499;-84
2023/10/13 14:03:04;;;;;;;;;;;20.80;58.70;;;;;;5026171;27;114460;-83
2023/10/13 14:05:32;;;;;;;;;;;20.90;58.70;;;;;;5024742;28;117041;-84
2023/10/13 14:07:59;;;;;;;;;;;20.90;58.60;;;;;;5015816;27;116065;-84
2023/10/13 14:10:33;;;;;;;;;;;20.90;58.40;;;;;;5005329;28;114633;-83
2023/10/13 14:13:06;;;;;;;;;;;20.90;58.40;;;;;;5003417;28;114521;-82
2023/10/13 14:15:39;;;;;;;;;;;20.80;58.40;;;;;;4987991;28;115665;-82
2023/10/13 14:18:07;;;;;;;;;;;20.90;58.30;;;;;;4995180;28;115017;-83
2023/10/13 14:20:39;;;;;;;;;;;20.80;58.30;;;;;;5007164;28;114494;-83
2023/10/13 14:23:09;;;;;;;;;;;20.80;58.20;;;;;;5006225;28;115145;-85
2023/10/13 14:25:39;;;;;;;;;;;20.80;58.20;;;;;;5022404;28;114974;-83
2023/10/13 14:28:06;;;;;;;;;;;20.80;58.20;;;;;;5024188;27;116106;-84
2023/10/13 14:30:33;;;;;;;;;;;20.80;58.20;;;;;;5022756;27;114361;-83
2023/10/13 14:33:01;;;;;;;;;;;20.70;58.30;;;;;;5015051;28;114570;-83
2023/10/13 14:35:28;;;;;;;;;;;20.70;58.40;;;;;;5010458;28;115337;-84
2023/10/13 14:37:55;;;;;;;;;;;20.70;58.50;;;;;;5025831;27;115243;-83
2023/10/13 14:40:23;;;;;;;;;;;20.70;58.50;;;;;;5008644;28;114397;-84
2023/10/13 14:42:50;;;;;;;;;;;20.70;58.60;;;;;;5015465;28;114349;-84
2023/10/13 14:45:17;;;;;;;;;;;20.60;58.60;;;;;;5011089;28;114868;-84
2023/10/13 14:47:44;;;;;;;;;;;20.60;58.60;;;;;;5020472;28;114735;-83
2023/10/13 14:50:21;;;;;;;;;;;20.50;58.60;;;;;;5021807;28;114796;-83
2023/10/13 14:52:48;;;;;;;;;;;20.50;58.60;;;;;;5006196;28;114514;-83
2023/10/13 14:55:18;;;;;;;;;;;20.40;58.70;;;;;;5007058;28;117253;-82
2023/10/13 14:57:50;;;;;;;;;;;20.30;58.70;;;;;;5005568;28;115765;-83
2023/10/13 15:00:27;;;;;;;;;;;20.30;58.80;;;;;;5006195;28;114531;-82
2023/10/13 15:02:54;;;;;;;;;;;20.30;58.80;;;;;;5006751;28;114431;-83
2023/10/13 15:05:22;;;;;;;;;;;20.30;58.90;;;;;;5008681;28;115542;-81
2023/10/13 15:07:51;;;;;;;;;;;20.30;58.90;;;;;;5007348;28;114528;-84
2023/10/13 15:10:18;;;;;;;;;;;20.20;59.00;;;;;;5006892;28;114249;-83
2023/10/13 15:12:45;;;;;;;;;;;20.30;59.00;;;;;;5022330;27;114572;-84
2023/10/13 15:15:21;;;;;;;;;;;20.20;59.00;;;;;;5009260;28;116941;-84
2023/10/13 15:17:50;;;;;;;;;;;20.20;59.10;;;;;;5006637;28;114849;-84
2023/10/13 15:20:17;;;;;;;;;;;20.20;59.10;;;;;;5015976;28;114630;-85
2023/10/13 15:22:47;;;;;;;;;;;20.20;59.10;;;;;;5013033;28;114663;-83
2023/10/13 15:25:21;;;;;;;;;;;20.10;59.10;;;;;;5024848;28;115378;-84
2023/10/13 15:27:57;;;;;;;;;;;20.10;59.20;;;;;;5023109;28;115492;-84
2023/10/13 15:30:30;;;;;;;;;;;20.10;59.30;;;;;;5024909;27;114469;-83
2023/10/13 15:32:57;;;;;;;;;;;20.00;59.30;;;;;;5010398;28;114436;-83
2023/10/13 15:35:29;;;;;;;;;;;20.00;59.40;;;;;;5014941;28;115590;-84
2023/10/13 15:37:56;;;;;;;;;;;20.00;59.40;;;;;;5025542;27;114710;-84
2023/10/13 15:40:23;;;;;;;;;;;20.00;59.50;;;;;;5004482;28;114509;-84
2023/10/13 15:42:51;;;;;;;;;;;19.90;59.50;;;;;;5007947;28;114435;-84
2023/10/13 15:45:18;;;;;;;;;;;19.90;59.50;;;;;;5021518;28;114957;-84
2023/10/13 15:47:48;;;;;;;;;;;19.80;59.60;;;;;;5016279;28;115212;-83
2023/10/13 15:50:20;;;;;;;;;;;19.80;59.70;;;;;;5008321;28;114300;-82
2023/10/13 15:52:48;;;;;;;;;;;19.80;59.80;;;;;;5017804;28;116981;-82
2023/10/13 15:55:17;;;;;;;;;;;19.70;59.80;;;;;;5005873;28;114918;-82
2023/10/13 15:57:44;;;;;;;;;;;19.70;59.90;;;;;;4998543;28;115148;-82
2023/10/13 16:00:25;;;;;;;;;;;19.60;60.00;;;;;;5013788;28;115013;-82
2023/10/13 16:02:54;;;;;;;;;;;19.50;60.20;;;;;;5021659;28;114614;-81
2023/10/13 16:05:22;;;;;;;;;;;19.30;60.50;;;;;;5023626;27;115509;-82
2023/10/13 16:07:53;;;;;;;;;;;19.30;60.80;;;;;;5018953;28;115130;-86
2023/10/13 16:10:23;;;;;;;;;;;19.20;61.30;;;;;;5013964;28;114525;-84
2023/10/13 16:12:50;;;;;;;;;;;19.10;61.20;;;;;;5020861;28;114507;-83
2023/10/13 16:15:18;;;;;;;;;;;19.00;61.70;;;;;;5022121;28;115394;-83
2023/10/13 16:17:45;;;;;;;;;;;18.90;61.70;;;;;;5015308;28;114668;-82
2023/10/13 16:20:18;;;;;;;;;;;18.80;62.40;;;;;;5027731;27;114484;-83
2023/10/13 16:22:46;;;;;;;;;;;18.70;63.00;;;;;;5009536;28;114549;-83
2023/10/13 16:25:14;;;;;;;;;;;18.70;62.40;;;;;;5019350;28;116174;-84
2023/10/13 16:27:46;;;;;;;;;;;18.70;62.40;;;;;;5011874;28;114818;-82
2023/10/13 16:30:18;;;;;;;;;;;18.60;62.30;;;;;;5027292;27;114342;-83
2023/10/13 16:32:47;;;;;;;;;;;18.60;62.40;;;;;;5015741;28;114345;-82
2023/10/13 16:35:18;;;;;;;;;;;18.60;62.30;;;;;;5003753;28;114973;-82
2023/10/13 16:37:45;;;;;;;;;;;18.60;62.30;;;;;;5005182;27;117609;-84
2023/10/13 16:40:19;;;;;;;;;;;18.60;62.40;;;;;;5009374;28;114572;-83
2023/10/13 16:42:49;;;;;;;;;;;18.60;62.30;;;;;;5004397;28;114313;-82
2023/10/13 16:45:23;;;;;;;;;;;18.60;62.40;;;;;;5013561;28;114812;-82
2023/10/13 16:47:53;;;;;;;;;;;18.50;62.50;;;;;;5008079;28;114787;-83
2023/10/13 16:50:21;;;;;;;;;;;18.50;62.50;;;;;;5020302;28;114336;-83
2023/10/13 16:52:49;;;;;;;;;;;18.50;62.60;;;;;;5005321;28;114328;-83
2023/10/13 16:55:17;;;;;;;;;;;18.40;62.70;;;;;;5003333;28;118068;-82
2023/10/13 16:57:45;;;;;;;;;;;18.30;63.00;;;;;;4998411;28;114793;-83
2023/10/13 17:00:16;;;;;;;;;;;18.30;63.30;;;;;;5004003;28;114669;-83
2023/10/13 17:02:43;;;;;;;;;;;18.30;63.40;;;;;;5007768;28;114393;-83
2023/10/13 17:05:12;;;;;;;;;;;18.20;63.50;;;;;;5003972;28;115530;-82
2023/10/13 17:07:39;;;;;;;;;;;18.20;63.60;;;;;;5002621;28;115292;-82
2023/10/13 17:10:07;;;;;;;;;;;18.20;64.00;;;;;;5004099;28;114465;-83
2023/10/13 17:12:34;;;;;;;;;;;18.20;63.60;;;;;;5008505;28;115163;-81
2023/10/13 17:15:13;;;;;;;;;;;18.10;63.80;;;;;;5010022;28;116180;-83
2023/10/13 17:17:42;;;;;;;;;;;18.10;63.90;;;;;;5005784;28;117413;-83
2023/10/13 17:20:09;;;;;;;;;;;18.10;63.80;;;;;;5013745;28;114668;-83
2023/10/13 17:22:36;;;;;;;;;;;18.10;63.70;;;;;;5010288;27;114564;-83
2023/10/13 17:25:06;;;;;;;;;;;18.20;63.80;;;;;;4988051;28;117788;-81
2023/10/13 17:27:37;;;;;;;;;;;18.10;63.70;;;;;;5002119;28;115309;-83
2023/10/13 17:30:08;;;;;;;;;;;18.00;64.10;;;;;;5005049;28;114454;-84
2023/10/13 17:32:38;;;;;;;;;;;18.00;64.50;;;;;;5006148;28;114441;-82
2023/10/13 17:35:11;;;;;;;;;;;17.90;64.50;;;;;;5009818;28;116371;-82
2023/10/13 17:37:42;;;;;;;;;;;17.90;64.80;;;;;;5012310;28;115665;-82
2023/10/13 17:40:15;;;;;;;;;;;17.80;64.80;;;;;;5013564;28;114532;-82
2023/10/13 17:42:42;;;;;;;;;;;17.80;64.90;;;;;;5015803;28;114243;-81
2023/10/13 17:45:11;;;;;;;;;;;17.80;64.80;;;;;;5012248;28;114873;-83
2023/10/13 17:47:38;;;;;;;;;;;17.80;65.00;;;;;;5014092;28;116234;-81